createdAt,value
2023-01-27T00:01:37.686Z,88.24
2023-01-27T00:04:07.161Z,88.89
2023-01-27T00:06:34.065Z,89.06
2023-01-27T00:09:05.714Z,88.30
2023-01-27T00:11:56.230Z,88.80
2023-01-27T00:14:23.827Z,89.00
2023-01-27T00:16:53.532Z,89.30
2023-01-27T00:19:20.509Z,88.27
2023-01-27T00:22:08.740Z,89.47
2023-01-27T00:24:38.485Z,89.26
2023-01-27T00:27:09.453Z,89.39
2023-01-27T00:29:37.260Z,89.98
2023-01-27T00:32:24.221Z,89.61
2023-01-27T00:34:53.604Z,90.56
2023-01-27T00:37:20.906Z,92.00
2023-01-27T00:39:47.749Z,91.36
2023-01-27T00:42:14.672Z,91.55
2023-01-27T00:45:01.574Z,92.85
2023-01-27T00:47:28.583Z,92.12
2023-01-27T00:49:58.153Z,92.51
2023-01-27T00:52:25.362Z,92.67
2023-01-27T00:54:54.696Z,92.29
2023-01-27T00:57:23.824Z,92.11
2023-01-27T00:59:53.465Z,93.80
2023-01-27T01:02:22.863Z,93.86
2023-01-27T01:04:49.878Z,92.35
2023-01-27T01:07:19.199Z,93.24
2023-01-27T01:09:46.209Z,94.91
2023-01-27T01:12:13.342Z,93.25
2023-01-27T01:14:42.951Z,95.23
2023-01-27T01:17:09.763Z,95.42
2023-01-27T01:19:36.738Z,94.94
2023-01-27T01:22:05.840Z,94.99
2023-01-27T01:24:32.848Z,95.71
2023-01-27T01:27:00.446Z,96.21
2023-01-27T01:29:29.574Z,96.04
2023-01-27T01:31:58.892Z,97.16
2023-01-27T01:34:25.769Z,97.13
2023-01-27T01:36:52.730Z,96.68
2023-01-27T01:39:19.772Z,97.61
2023-01-27T01:41:47.103Z,98.50
2023-01-27T01:44:31.673Z,98.23
2023-01-27T01:47:01.067Z,98.27
2023-01-27T01:49:36.613Z,99.54
2023-01-27T01:52:24.577Z,97.69
2023-01-27T01:54:55.821Z,99.19
2023-01-27T01:57:34.339Z,98.72
2023-01-27T02:00:10.482Z,97.14
2023-01-27T02:02:39.411Z,97.34
2023-01-27T02:05:16.724Z,97.61
2023-01-27T02:08:30.149Z,98.01
2023-01-27T02:10:57.740Z,99.07
2023-01-27T02:13:24.767Z,98.90
2023-01-27T02:15:54.981Z,98.59
2023-01-27T02:18:23.087Z,97.83
2023-01-27T02:20:53.825Z,97.52
2023-01-27T02:23:29.372Z,97.28
2023-01-27T02:26:11.203Z,97.73
2023-01-27T02:28:41.207Z,98.44
2023-01-27T02:31:10.584Z,99.69
2023-01-27T02:33:37.662Z,99.26
2023-01-27T02:36:11.993Z,98.18
2023-01-27T02:38:55.527Z,98.74
2023-01-27T02:41:35.362Z,99.33
2023-01-27T02:44:06.777Z,98.61
2023-01-27T02:46:34.042Z,98.86
2023-01-27T02:49:01.863Z,98.06
2023-01-27T02:51:31.364Z,96.91
2023-01-27T02:54:00.721Z,98.05
2023-01-27T02:56:28.523Z,97.53
2023-01-27T02:59:01.157Z,97.62
2023-01-27T03:01:28.184Z,97.10
2023-01-27T03:03:55.170Z,98.41
2023-01-27T03:06:24.736Z,98.02
2023-01-27T03:08:53.883Z,97.44
2023-01-27T03:11:39.173Z,98.09
2023-01-27T03:14:08.445Z,96.93
2023-01-27T03:16:54.246Z,95.97
2023-01-27T03:19:23.671Z,96.27
2023-01-27T03:21:53.688Z,95.62
2023-01-27T03:24:21.109Z,96.47
2023-01-27T03:26:48.651Z,97.07
2023-01-27T03:29:34.502Z,97.15
2023-01-27T03:32:01.372Z,96.55
2023-01-27T03:34:30.344Z,95.91
2023-01-27T03:37:18.118Z,95.73
2023-01-27T03:40:03.684Z,94.57
2023-01-27T03:42:51.243Z,95.06
2023-01-27T03:45:36.785Z,93.80
2023-01-27T03:48:04.146Z,94.89
2023-01-27T03:50:43.827Z,93.60
2023-01-27T03:53:13.508Z,92.90
2023-01-27T03:55:40.473Z,91.08
2023-01-27T03:58:32.234Z,91.46
2023-01-27T04:01:08.595Z,90.54
2023-01-27T04:03:55.020Z,91.99
2023-01-27T04:06:44.967Z,92.31
2023-01-27T04:09:13.698Z,92.43
2023-01-27T04:11:55.963Z,92.09
2023-01-27T04:14:30.574Z,92.38
2023-01-27T04:17:12.539Z,92.56
2023-01-27T04:19:39.901Z,92.72
2023-01-27T04:22:12.095Z,91.89
2023-01-27T04:24:39.534Z,92.58
2023-01-27T04:27:13.324Z,91.93
2023-01-27T04:29:42.227Z,91.47
2023-01-27T04:32:12.396Z,90.99
2023-01-27T04:34:40.517Z,89.80
2023-01-27T04:37:10.742Z,91.48
2023-01-27T04:39:41.503Z,91.91
2023-01-27T04:42:10.708Z,92.01
2023-01-27T04:44:37.752Z,91.60
2023-01-27T04:47:04.764Z,91.60
2023-01-27T04:49:34.214Z,92.68
2023-01-27T04:52:01.168Z,93.23
2023-01-27T04:54:30.733Z,92.94
2023-01-27T04:57:00.735Z,93.13
2023-01-27T04:59:32.465Z,93.34
2023-01-27T05:02:01.871Z,93.19
2023-01-27T05:04:28.876Z,93.31
2023-01-27T05:06:55.923Z,93.60
2023-01-27T05:09:25.572Z,93.86
2023-01-27T05:11:52.546Z,93.60
2023-01-27T05:14:23.695Z,94.00
2023-01-27T05:16:55.270Z,94.30
2023-01-27T05:19:22.232Z,93.68
2023-01-27T05:21:49.264Z,94.46
2023-01-27T05:24:16.313Z,92.83
2023-01-27T05:26:43.294Z,92.82
2023-01-27T05:29:12.480Z,92.57
2023-01-27T05:31:39.437Z,92.19
2023-01-27T05:34:06.684Z,93.28
2023-01-27T05:36:33.714Z,93.29
2023-01-27T05:39:00.904Z,92.85
2023-01-27T05:41:31.902Z,93.86
2023-01-27T05:43:59.308Z,92.87
2023-01-27T05:46:32.110Z,93.93
2023-01-27T05:49:06.203Z,93.00
2023-01-27T05:51:39.985Z,92.10
2023-01-27T05:54:08.665Z,92.72
2023-01-27T05:56:36.220Z,92.89
2023-01-27T05:59:03.125Z,92.19
2023-01-27T06:01:35.015Z,91.55
2023-01-27T06:04:02.380Z,91.73
2023-01-27T06:06:32.016Z,91.64
2023-01-27T06:09:02.346Z,92.21
2023-01-27T06:11:33.224Z,90.64
2023-01-27T06:14:02.455Z,90.99
2023-01-27T06:16:29.398Z,91.60
2023-01-27T06:19:01.167Z,90.72
2023-01-27T06:21:32.578Z,91.02
2023-01-27T06:24:02.092Z,89.86
2023-01-27T06:26:33.404Z,90.48
2023-01-27T06:29:00.390Z,90.13
2023-01-27T06:31:28.428Z,90.71
2023-01-27T06:33:57.553Z,91.59
2023-01-27T06:36:24.552Z,91.20
2023-01-27T06:38:56.535Z,90.55
2023-01-27T06:41:26.416Z,92.33
2023-01-27T06:43:53.686Z,92.00
2023-01-27T06:46:23.004Z,91.97
2023-01-27T06:48:50.032Z,91.48
2023-01-27T06:51:17.056Z,90.39
2023-01-27T06:53:44.158Z,91.47
2023-01-27T06:56:11.383Z,91.90
2023-01-27T06:58:40.738Z,91.59
2023-01-27T07:01:10.208Z,91.97
2023-01-27T07:03:39.416Z,91.97
2023-01-27T07:06:06.776Z,92.09
2023-01-27T07:08:36.736Z,91.92
2023-01-27T07:11:07.427Z,90.67
2023-01-27T07:13:36.768Z,90.39
2023-01-27T07:16:04.194Z,90.94
2023-01-27T07:18:33.869Z,90.78
2023-01-27T07:21:00.813Z,91.35
2023-01-27T07:23:27.886Z,91.96
2023-01-27T07:25:54.828Z,92.14
2023-01-27T07:28:21.842Z,92.02
2023-01-27T07:30:51.475Z,90.40
2023-01-27T07:33:18.539Z,89.33
2023-01-27T07:35:49.890Z,90.33
2023-01-27T07:38:17.060Z,90.47
2023-01-27T07:40:48.740Z,90.84
2023-01-27T07:43:15.881Z,91.35
2023-01-27T07:45:48.998Z,90.84
2023-01-27T07:48:16.570Z,91.43
2023-01-27T07:50:43.707Z,90.32
2023-01-27T07:53:12.950Z,90.24
2023-01-27T07:55:40.135Z,89.65
2023-01-27T07:58:09.975Z,89.21
2023-01-27T08:00:37.224Z,90.00
2023-01-27T08:03:06.203Z,89.89
2023-01-27T08:05:35.001Z,90.44
2023-01-27T08:08:06.597Z,89.53
2023-01-27T08:10:33.566Z,90.16
2023-01-27T08:13:02.941Z,90.66
2023-01-27T08:15:30.158Z,90.13
2023-01-27T08:17:59.231Z,89.62
2023-01-27T08:20:28.193Z,88.53
2023-01-27T08:22:57.881Z,88.48
2023-01-27T08:25:27.970Z,88.82
2023-01-27T08:27:57.349Z,86.80
2023-01-27T08:30:25.296Z,86.92
2023-01-27T08:32:54.841Z,86.60
2023-01-27T08:35:21.953Z,87.20
2023-01-27T08:37:49.142Z,87.26
2023-01-27T08:40:17.693Z,86.88
2023-01-27T08:42:46.921Z,85.12
2023-01-27T08:45:16.088Z,85.08
2023-01-27T08:47:43.199Z,84.94
2023-01-27T08:50:13.758Z,84.54
2023-01-27T08:52:43.321Z,84.78
2023-01-27T08:55:10.450Z,84.64
2023-01-27T08:57:37.878Z,83.82
2023-01-27T09:00:09.780Z,83.85
2023-01-27T09:02:38.969Z,84.17
2023-01-27T09:05:07.049Z,83.56
2023-01-27T09:07:34.354Z,83.74
2023-01-27T09:10:14.018Z,84.05
2023-01-27T09:12:47.318Z,83.56
2023-01-27T09:15:15.741Z,84.25
2023-01-27T09:17:45.283Z,83.76
2023-01-27T09:20:13.196Z,83.52
2023-01-27T09:22:41.349Z,83.35
2023-01-27T09:25:17.780Z,83.30
2023-01-27T09:27:47.449Z,83.16
2023-01-27T09:30:16.677Z,82.94
2023-01-27T09:32:45.268Z,83.28
2023-01-27T09:35:15.288Z,82.33
2023-01-27T09:38:04.557Z,82.05
2023-01-27T09:40:34.038Z,80.80
2023-01-27T09:43:25.067Z,81.38
2023-01-27T09:46:24.099Z,81.70
2023-01-27T09:49:21.387Z,81.05
2023-01-27T09:52:20.477Z,81.29
2023-01-27T09:55:38.388Z,81.15
2023-01-27T09:58:17.044Z,81.40
2023-01-27T10:01:18.366Z,81.66
2023-01-27T10:04:06.771Z,81.05
2023-01-27T10:07:43.300Z,80.32
2023-01-27T10:10:31.493Z,79.98
2023-01-27T10:13:16.391Z,80.33
2023-01-27T10:16:20.462Z,80.72
2023-01-27T10:19:15.891Z,80.46
2023-01-27T10:22:02.587Z,80.67
2023-01-27T10:24:38.704Z,81.27
2023-01-27T10:27:24.558Z,80.35
2023-01-27T10:30:37.385Z,80.63
2023-01-27T10:33:52.546Z,81.16
2023-01-27T10:36:51.214Z,80.28
2023-01-27T10:39:44.079Z,79.98
2023-01-27T10:43:04.308Z,79.91
2023-01-27T10:45:56.363Z,80.73
2023-01-27T10:48:55.057Z,79.85
2023-01-27T10:51:39.219Z,79.47
2023-01-27T10:54:35.169Z,80.00
2023-01-27T10:57:38.598Z,80.65
2023-01-27T11:03:33.520Z,79.20
2023-01-27T11:06:08.524Z,78.98
2023-01-27T11:08:41.906Z,78.88
2023-01-27T11:11:30.715Z,78.30
2023-01-27T11:14:27.545Z,77.57
2023-01-27T11:17:31.309Z,76.94
2023-01-27T11:20:25.576Z,76.26
2023-01-27T11:23:24.257Z,76.19
2023-01-27T11:26:34.263Z,76.38
2023-01-27T11:29:34.688Z,75.36
2023-01-27T11:32:23.614Z,75.14
2023-01-27T11:35:09.864Z,73.03
2023-01-27T11:37:48.135Z,72.33
2023-01-27T11:40:22.187Z,72.37
2023-01-27T11:42:51.646Z,71.01
2023-01-27T11:45:21.165Z,69.99
2023-01-27T11:47:52.896Z,69.16
2023-01-27T11:50:24.850Z,67.47
2023-01-27T11:53:04.451Z,66.72
2023-01-27T11:55:43.227Z,68.22
2023-01-27T11:58:25.572Z,66.72
2023-01-27T12:01:06.130Z,68.27
2023-01-27T12:03:41.802Z,69.42
2023-01-27T12:07:17.704Z,66.52
2023-01-27T12:09:44.696Z,67.30
2023-01-27T12:12:14.967Z,67.94
2023-01-27T12:15:03.225Z,67.85
2023-01-27T12:17:43.819Z,69.48
2023-01-27T12:20:35.111Z,69.28
2023-01-27T12:23:18.713Z,68.74
2023-01-27T12:25:53.358Z,69.82
2023-01-27T12:28:37.972Z,70.92
2023-01-27T12:31:13.847Z,70.50
2023-01-27T12:33:59.952Z,71.24
2023-01-27T12:36:30.172Z,70.50
2023-01-27T12:39:03.420Z,70.78
2023-01-27T12:41:39.117Z,71.16
2023-01-27T12:44:26.377Z,70.57
2023-01-27T12:47:04.055Z,70.72
2023-01-27T12:49:40.630Z,71.63
2023-01-27T12:52:18.421Z,71.91
2023-01-27T12:54:46.232Z,71.42
2023-01-27T12:57:20.953Z,72.07
2023-01-27T12:59:55.390Z,71.40
2023-01-27T13:02:33.980Z,70.99
2023-01-27T13:05:05.557Z,69.57
2023-01-27T13:07:44.566Z,68.10
2023-01-27T13:10:25.803Z,67.80
2023-01-27T13:12:57.517Z,67.19
2023-01-27T13:15:28.635Z,66.56
2023-01-27T13:18:00.465Z,66.58
2023-01-27T13:20:45.715Z,66.87
2023-01-27T13:23:29.383Z,66.81
2023-01-27T13:26:11.349Z,66.21
2023-01-27T13:28:58.931Z,64.90
2023-01-27T13:31:49.776Z,64.83
2023-01-27T13:34:24.850Z,65.76
2023-01-27T13:37:28.258Z,66.13
2023-01-27T13:39:57.948Z,66.00
2023-01-27T13:42:53.415Z,65.88
2023-01-27T13:45:32.716Z,65.96
2023-01-27T13:48:13.224Z,65.46
2023-01-27T13:50:53.741Z,64.92
2023-01-27T13:53:21.090Z,64.73
2023-01-27T13:56:06.118Z,64.97
2023-01-27T13:59:11.000Z,67.50
2023-01-27T14:02:06.521Z,67.36
2023-01-27T14:04:42.747Z,68.98
2023-01-27T14:07:48.739Z,70.60
2023-01-27T14:10:59.723Z,71.10
2023-01-27T14:14:03.752Z,70.27
2023-01-27T14:16:42.869Z,69.35
2023-01-27T14:19:40.231Z,69.56
2023-01-27T14:22:28.670Z,69.16
2023-01-27T14:25:15.094Z,68.55
2023-01-27T14:28:36.139Z,69.29
2023-01-27T14:32:01.640Z,69.55
2023-01-27T14:35:22.563Z,69.24
2023-01-27T14:38:27.677Z,69.38
2023-01-27T14:41:21.844Z,69.56
2023-01-27T14:44:33.903Z,68.50
2023-01-27T14:47:24.192Z,67.91
2023-01-27T14:51:01.448Z,69.00
2023-01-27T14:54:01.604Z,68.32
2023-01-27T14:56:46.959Z,66.83
2023-01-27T15:00:11.374Z,66.08
2023-01-27T15:02:56.679Z,65.02
2023-01-27T15:05:44.684Z,63.61
2023-01-27T15:08:37.922Z,64.86
2023-01-27T15:11:29.756Z,64.45
2023-01-27T15:14:12.477Z,64.88
2023-01-27T15:17:38.088Z,63.79
2023-01-27T15:20:48.448Z,62.74
2023-01-27T15:23:48.030Z,63.64
2023-01-27T15:26:21.669Z,62.70
2023-01-27T15:28:52.255Z,62.69
2023-01-27T15:31:19.455Z,61.77
2023-01-27T15:34:16.788Z,63.09
2023-01-27T15:37:12.209Z,63.20
2023-01-27T15:40:06.285Z,62.41
2023-01-27T15:42:53.350Z,62.10
2023-01-27T15:45:32.004Z,61.81
2023-01-27T15:48:22.407Z,61.30
2023-01-27T15:50:59.382Z,61.76
2023-01-27T15:53:44.813Z,61.28
2023-01-27T15:56:12.302Z,61.31
2023-01-27T15:58:43.176Z,61.42
2023-01-27T16:01:25.427Z,60.98
2023-01-27T16:04:13.062Z,61.52
2023-01-27T16:07:02.117Z,61.10
2023-01-27T16:09:41.900Z,62.20
2023-01-27T16:12:24.487Z,61.72
2023-01-27T16:15:15.106Z,62.93
2023-01-27T16:18:08.554Z,61.87
2023-01-27T16:20:55.703Z,62.08
2023-01-27T16:23:50.282Z,61.71
2023-01-27T16:26:36.651Z,61.79
2023-01-27T16:29:12.405Z,62.45
2023-01-27T16:31:43.718Z,62.08
2023-01-27T16:34:25.997Z,61.97
2023-01-27T16:37:19.853Z,60.71
2023-01-27T16:39:59.091Z,61.68
2023-01-27T16:42:56.166Z,61.79
2023-01-27T16:45:28.074Z,61.46
2023-01-27T16:48:06.285Z,61.74
2023-01-27T16:50:44.759Z,61.41
2023-01-27T16:53:19.930Z,61.29
2023-01-27T16:56:02.718Z,61.38
2023-01-27T16:58:43.862Z,61.64
2023-01-27T17:01:43.559Z,60.45
2023-01-27T17:04:21.969Z,61.14
2023-01-27T17:06:51.711Z,60.87
2023-01-27T17:09:30.087Z,61.12
2023-01-27T17:11:59.469Z,61.21
2023-01-27T17:14:38.230Z,61.10
2023-01-27T17:17:17.965Z,61.35
2023-01-27T17:19:50.015Z,61.90
2023-01-27T17:22:28.704Z,61.60
2023-01-27T17:25:02.507Z,61.21
2023-01-27T17:27:42.267Z,61.23
2023-01-27T17:30:19.155Z,61.51
2023-01-27T17:32:55.989Z,61.32
2023-01-27T17:35:32.905Z,60.94
2023-01-27T17:38:23.553Z,61.75
2023-01-27T17:40:57.597Z,61.28
2023-01-27T17:43:34.534Z,60.77
2023-01-27T17:46:21.241Z,61.47
2023-01-27T17:49:01.393Z,61.39
2023-01-27T17:51:53.206Z,61.65
2023-01-27T17:54:30.111Z,61.81
2023-01-27T17:57:20.184Z,62.46
2023-01-27T18:00:00.759Z,61.50
2023-01-27T18:02:35.639Z,61.61
2023-01-27T18:05:17.183Z,61.21
2023-01-27T18:07:44.238Z,61.26
2023-01-27T18:10:28.146Z,61.60
2023-01-27T18:12:55.177Z,61.03
2023-01-27T18:15:39.046Z,60.80
2023-01-27T18:18:30.581Z,61.10
2023-01-27T18:21:09.467Z,61.43
2023-01-27T18:23:51.071Z,61.60
2023-01-27T18:26:42.330Z,61.86
2023-01-27T18:29:17.358Z,61.54
2023-01-27T18:32:13.373Z,60.89
2023-01-27T18:35:00.399Z,61.51
2023-01-27T18:37:28.699Z,61.00
2023-01-27T18:40:00.886Z,60.48
2023-01-27T18:42:31.024Z,60.74
2023-01-27T18:44:58.326Z,60.35
2023-01-27T18:47:36.313Z,61.22
2023-01-27T18:50:24.195Z,60.81
2023-01-27T18:52:54.317Z,61.63
2023-01-27T18:55:29.864Z,61.29
2023-01-27T18:57:59.524Z,61.42
2023-01-27T19:00:53.637Z,61.78
2023-01-27T19:03:24.651Z,62.28
2023-01-27T19:05:52.083Z,62.73
2023-01-27T19:08:25.655Z,62.42
2023-01-27T19:10:53.097Z,62.41
2023-01-27T19:13:20.425Z,62.60
2023-01-27T19:15:51.724Z,62.81
2023-01-27T19:18:33.906Z,61.97
2023-01-27T19:21:03.915Z,60.95
2023-01-27T19:23:33.362Z,62.01
2023-01-27T19:26:03.569Z,62.08
2023-01-27T19:28:37.231Z,61.50
2023-01-27T19:31:07.666Z,60.30
2023-01-27T19:33:37.177Z,61.25
2023-01-27T19:36:44.601Z,61.03
2023-01-27T19:39:14.354Z,61.26
2023-01-27T19:41:45.617Z,60.67
2023-01-27T19:44:13.705Z,60.71
2023-01-27T19:46:42.669Z,60.69
2023-01-27T19:49:22.512Z,60.32
2023-01-27T19:51:51.633Z,60.17
2023-01-27T19:54:18.650Z,60.42
2023-01-27T19:56:46.014Z,60.48
2023-01-27T19:59:13.057Z,60.44
2023-01-27T20:01:45.994Z,60.60
2023-01-27T20:04:15.671Z,60.51
2023-01-27T20:06:45.049Z,60.59
2023-01-27T20:09:12.017Z,60.23
2023-01-27T20:11:42.411Z,59.74
2023-01-27T20:14:25.902Z,59.59
2023-01-27T20:16:55.223Z,60.05
2023-01-27T20:19:23.033Z,60.18
2023-01-27T20:21:55.528Z,59.64
2023-01-27T20:24:26.950Z,60.05
2023-01-27T20:26:55.478Z,60.03
2023-01-27T20:29:25.034Z,60.14
2023-01-27T20:31:54.667Z,60.02
2023-01-27T20:34:24.678Z,59.58
2023-01-27T20:36:51.618Z,59.01
2023-01-27T20:39:22.159Z,59.44
2023-01-27T20:41:51.210Z,59.18
2023-01-27T20:44:20.907Z,59.13
2023-01-27T20:46:47.968Z,58.49
2023-01-27T20:49:17.401Z,58.21
2023-01-27T20:51:44.496Z,59.15
2023-01-27T20:54:14.759Z,59.03
2023-01-27T20:56:41.727Z,58.59
2023-01-27T20:59:08.719Z,58.86
2023-01-27T21:01:35.887Z,59.84
2023-01-27T21:04:02.794Z,58.93
2023-01-27T21:06:29.713Z,59.07
2023-01-27T21:08:59.186Z,57.91
2023-01-27T21:11:26.170Z,58.59
2023-01-27T21:13:55.492Z,58.35
2023-01-27T21:16:22.561Z,57.34
2023-01-27T21:18:51.682Z,57.39
2023-01-27T21:21:27.488Z,57.46
2023-01-27T21:23:56.220Z,58.20
2023-01-27T21:26:24.009Z,58.59
2023-01-27T21:28:51.071Z,58.30
2023-01-27T21:31:20.583Z,58.48
2023-01-27T21:33:50.911Z,58.90
2023-01-27T21:36:19.316Z,56.98
2023-01-27T21:38:47.135Z,59.14
2023-01-27T21:41:37.850Z,59.68
2023-01-27T21:44:25.093Z,58.00
2023-01-27T21:46:52.104Z,57.52
2023-01-27T21:49:19.274Z,57.62
2023-01-27T21:51:48.102Z,58.33
2023-01-27T21:54:19.298Z,59.01
2023-01-27T21:56:46.220Z,57.57
2023-01-27T21:59:13.305Z,57.95
2023-01-27T22:01:42.840Z,57.52
2023-01-27T22:04:10.211Z,57.88
2023-01-27T22:06:37.938Z,57.82
2023-01-27T22:09:04.966Z,58.05
2023-01-27T22:11:32.211Z,57.89
2023-01-27T22:14:01.688Z,57.26
2023-01-27T22:16:28.912Z,57.46
2023-01-27T22:18:55.807Z,57.79
2023-01-27T22:21:24.914Z,57.43
2023-01-27T22:23:54.351Z,56.95
2023-01-27T22:26:21.291Z,58.02
2023-01-27T22:28:52.710Z,57.30
2023-01-27T22:31:22.665Z,57.33
2023-01-27T22:33:49.681Z,57.52
2023-01-27T22:36:16.725Z,56.98
2023-01-27T22:38:46.136Z,57.22
2023-01-27T22:41:13.221Z,56.89
2023-01-27T22:43:42.767Z,56.71
2023-01-27T22:46:14.231Z,57.19
2023-01-27T22:48:43.517Z,57.54
2023-01-27T22:51:10.541Z,57.90
2023-01-27T22:53:39.781Z,57.51
2023-01-27T22:56:09.745Z,58.08
2023-01-27T22:58:36.911Z,58.25
2023-01-27T23:01:08.194Z,58.22
2023-01-27T23:03:35.173Z,58.30
2023-01-27T23:06:07.261Z,57.42
2023-01-27T23:08:37.370Z,57.58
2023-01-27T23:11:06.316Z,57.62
2023-01-27T23:13:34.655Z,57.69
2023-01-27T23:16:01.701Z,57.89
2023-01-27T23:18:31.054Z,56.81
2023-01-27T23:21:04.885Z,57.57
2023-01-27T23:23:34.328Z,56.75
2023-01-27T23:26:01.474Z,55.88
2023-01-27T23:28:30.691Z,55.53
2023-01-27T23:30:57.825Z,55.99
2023-01-27T23:33:30.122Z,56.09
2023-01-27T23:36:00.148Z,55.85
2023-01-27T23:38:33.187Z,55.86
2023-01-27T23:41:24.270Z,56.01
2023-01-27T23:43:53.036Z,56.16
2023-01-27T23:46:20.310Z,56.27
2023-01-27T23:48:55.298Z,55.80
2023-01-27T23:51:23.594Z,54.96
2023-01-27T23:53:51.268Z,55.71
2023-01-27T23:56:20.352Z,56.22
2023-01-27T23:58:47.775Z,56.87
